Port Orford, Oregon
Current Conditions -  °F | °C
As of 7:56 PM on Tuesday 21 Oct 2014 (Local Time) from KBOK Reporting Station
Light Rain Light Rain  
Wind Chill: 56°   Ceiling: 4900
Heat Index: 56°   Visibility: 7mi
Dew Point: 53°   Wind: 7mph
Humidity: 89%   Direction: NA
Pressure: 30.01"   Gusts: NA
Location:  42.75°N, 124.5°W
Report Text: KBOK 220256Z AUTO VRB06KT 7SM -RA SCT041 OVC049 13/12 A3001 RMK AO2 58008 60001 T01330116 P0000 SLP165
Loading
Personal Weather Stations






























Interactive Weather Map
Tropical Storm Tracking
New forecast layout! Learn more

10-Day Weather Forecast

Advertisements
Track Severe Weather on mobile